createdAt,value
2018-03-15T00:02:25.707Z,16.03
2018-03-15T00:04:53.661Z,13.67
2018-03-15T00:07:21.737Z,17.40
2018-03-15T00:09:49.695Z,17.33
2018-03-15T00:12:17.618Z,14.47
2018-03-15T00:14:45.566Z,14.77
2018-03-15T00:17:13.662Z,11.10
2018-03-15T00:19:41.583Z,16.63
2018-03-15T00:22:09.581Z,16.10
2018-03-15T00:24:37.494Z,11.63
2018-03-15T00:27:05.557Z,16.73
2018-03-15T00:29:33.484Z,12.43
2018-03-15T00:32:01.417Z,14.77
2018-03-15T00:34:29.500Z,11.47
2018-03-15T00:36:57.429Z,13.40
2018-03-15T00:39:25.375Z,12.87
2018-03-15T00:41:54.155Z,13.23
2018-03-15T00:44:22.886Z,12.60
2018-03-15T00:46:50.830Z,14.10
2018-03-15T00:49:18.751Z,12.03
2018-03-15T00:51:46.708Z,11.03
2018-03-15T00:54:14.624Z,13.03
2018-03-15T00:56:42.572Z,13.43
2018-03-15T00:59:10.498Z,10.70
2018-03-15T01:01:38.520Z,12.23
2018-03-15T01:04:06.458Z,12.67
2018-03-15T01:06:34.495Z,12.83
2018-03-15T01:09:02.436Z,10.00
2018-03-15T01:11:30.344Z,13.73
2018-03-15T01:13:58.297Z,11.00
2018-03-15T01:16:26.239Z,10.10
2018-03-15T01:18:54.151Z,11.80
2018-03-15T01:21:22.113Z,11.60
2018-03-15T01:23:50.024Z,12.57
2018-03-15T01:26:17.974Z,9.87
2018-03-15T01:28:46.479Z,12.63
2018-03-15T01:31:14.791Z,11.47
2018-03-15T01:33:42.806Z,16.03
2018-03-15T01:36:10.812Z,11.97
2018-03-15T01:38:38.784Z,11.83
2018-03-15T01:41:06.727Z,13.20
2018-03-15T01:43:34.716Z,12.40
2018-03-15T01:46:02.654Z,9.20
2018-03-15T01:48:30.640Z,15.37
2018-03-15T01:50:58.597Z,12.73
2018-03-15T01:53:26.512Z,11.40
2018-03-15T01:55:54.439Z,11.10
2018-03-15T01:58:22.380Z,11.47
2018-03-15T02:00:50.373Z,12.47
2018-03-15T02:03:18.345Z,12.67
2018-03-15T02:05:46.320Z,11.03
2018-03-15T02:08:14.243Z,12.30
2018-03-15T02:10:42.179Z,10.53
2018-03-15T02:13:10.111Z,9.60
2018-03-15T02:15:38.089Z,16.40
2018-03-15T02:18:06.072Z,13.47
2018-03-15T02:20:33.997Z,16.60
2018-03-15T02:23:01.948Z,13.27
2018-03-15T02:25:29.865Z,11.40
2018-03-15T02:27:57.806Z,13.90
2018-03-15T02:30:25.762Z,14.43
2018-03-15T02:32:53.695Z,11.80
2018-03-15T02:35:21.626Z,13.17
2018-03-15T02:37:49.637Z,14.23
2018-03-15T02:40:17.647Z,14.20
2018-03-15T02:42:46.305Z,14.40
2018-03-15T02:45:14.226Z,16.13
2018-03-15T02:47:42.171Z,13.47
2018-03-15T02:50:10.215Z,16.23
2018-03-15T02:52:38.176Z,12.37
2018-03-15T02:55:06.100Z,14.23
2018-03-15T02:57:34.016Z,12.67
2018-03-15T03:00:01.958Z,13.53
2018-03-15T03:02:29.901Z,13.60
2018-03-15T03:04:57.916Z,22.20
2018-03-15T03:07:25.849Z,13.77
2018-03-15T03:09:53.777Z,15.57
2018-03-15T03:12:21.707Z,18.10
2018-03-15T03:14:49.742Z,16.80
2018-03-15T03:17:17.666Z,14.67
2018-03-15T03:19:45.772Z,17.10
2018-03-15T03:22:13.677Z,14.63
2018-03-15T03:24:42.163Z,16.17
2018-03-15T03:27:10.115Z,14.67
2018-03-15T03:29:38.063Z,15.50
2018-03-15T03:32:05.996Z,14.03
2018-03-15T03:34:33.981Z,13.90
2018-03-15T03:37:01.975Z,14.33
2018-03-15T03:39:29.957Z,13.30
2018-03-15T03:41:57.874Z,12.90
2018-03-15T03:44:25.812Z,13.90
2018-03-15T03:46:53.762Z,13.97
2018-03-15T03:49:21.688Z,15.23
2018-03-15T03:51:50.016Z,15.37
2018-03-15T03:54:17.965Z,18.13
2018-03-15T03:56:45.953Z,13.83
2018-03-15T03:59:13.982Z,15.87
2018-03-15T04:01:41.963Z,13.83
2018-03-15T04:04:10.070Z,13.93
2018-03-15T04:06:38.090Z,14.57
2018-03-15T04:09:06.044Z,13.10
2018-03-15T04:11:33.982Z,14.20
2018-03-15T04:14:01.937Z,13.23
2018-03-15T04:16:29.915Z,14.77
2018-03-15T04:18:57.873Z,13.40
2018-03-15T04:21:25.856Z,13.23
2018-03-15T04:23:53.777Z,20.20
2018-03-15T04:26:21.865Z,15.20
2018-03-15T04:28:49.840Z,14.97
2018-03-15T04:31:17.780Z,14.03
2018-03-15T04:33:45.698Z,16.07
2018-03-15T04:36:13.644Z,14.10
2018-03-15T04:38:41.575Z,15.90
2018-03-15T04:41:09.509Z,15.20
2018-03-15T04:43:37.472Z,17.83
2018-03-15T04:46:05.400Z,15.60
2018-03-15T04:48:33.321Z,13.77
2018-03-15T04:51:01.425Z,13.03
2018-03-15T04:53:29.564Z,19.70
2018-03-15T04:55:57.467Z,14.30
2018-03-15T04:58:25.525Z,15.87
2018-03-15T05:00:53.536Z,18.00
2018-03-15T05:03:21.464Z,14.57
2018-03-15T05:05:49.402Z,13.93
2018-03-15T05:08:17.340Z,14.07
2018-03-15T05:10:45.260Z,13.13
2018-03-15T05:13:13.198Z,14.57
2018-03-15T05:15:41.142Z,10.63
2018-03-15T05:18:09.282Z,10.60
2018-03-15T05:20:37.230Z,11.10
2018-03-15T05:23:05.183Z,9.10
2018-03-15T05:25:33.129Z,11.68
2018-03-15T05:28:01.088Z,8.87
2018-03-15T05:30:29.024Z,7.70
2018-03-15T05:32:57.025Z,11.00
2018-03-15T05:35:24.981Z,7.97
2018-03-15T05:37:52.980Z,9.27
2018-03-15T05:40:21.894Z,10.13
2018-03-15T05:42:49.822Z,9.00
2018-03-15T05:45:18.414Z,7.97
2018-03-15T05:47:46.337Z,6.77
2018-03-15T05:50:14.260Z,8.53
2018-03-15T05:52:42.195Z,7.40
2018-03-15T05:55:10.115Z,9.67
2018-03-15T05:57:38.188Z,8.30
2018-03-15T06:00:06.130Z,6.07
2018-03-15T06:02:34.042Z,8.47
2018-03-15T06:05:01.964Z,5.60
2018-03-15T06:07:29.944Z,5.63
2018-03-15T06:09:57.834Z,6.37
2018-03-15T06:12:25.759Z,6.43
2018-03-15T06:14:53.693Z,6.40
2018-03-15T06:17:21.746Z,6.73
2018-03-15T06:19:49.652Z,6.07
2018-03-15T06:22:17.627Z,9.20
2018-03-15T06:24:45.540Z,7.03
2018-03-15T06:27:13.451Z,7.03
2018-03-15T06:29:41.444Z,7.80
2018-03-15T06:32:09.374Z,6.63
2018-03-15T06:34:37.314Z,6.57
2018-03-15T06:37:05.273Z,5.47
2018-03-15T06:39:33.203Z,11.50
2018-03-15T06:42:01.214Z,7.17
2018-03-15T06:44:29.181Z,7.67
2018-03-15T06:46:57.224Z,6.60
2018-03-15T06:49:25.133Z,5.43
2018-03-15T06:51:53.109Z,5.20
2018-03-15T06:54:21.019Z,4.87
2018-03-15T06:56:48.957Z,5.63
2018-03-15T06:59:16.858Z,3.77
2018-03-15T07:01:44.791Z,7.97
2018-03-15T07:04:12.729Z,5.97
2018-03-15T07:06:40.660Z,5.50
2018-03-15T07:09:08.590Z,5.50
2018-03-15T07:11:36.479Z,6.57
2018-03-15T07:14:04.405Z,5.40
2018-03-15T07:16:32.584Z,8.70
2018-03-15T07:19:00.476Z,5.00
2018-03-15T07:21:28.391Z,4.83
2018-03-15T07:23:56.315Z,7.43
2018-03-15T07:26:24.225Z,13.73
2018-03-15T07:28:52.182Z,4.20
2018-03-15T07:31:20.086Z,6.23
2018-03-15T07:33:48.034Z,8.60
2018-03-15T07:36:15.944Z,10.23
2018-03-15T07:38:43.879Z,6.03
2018-03-15T07:41:11.781Z,4.73
2018-03-15T07:43:39.745Z,6.37
2018-03-15T07:46:07.717Z,3.80
2018-03-15T07:48:35.686Z,4.13
2018-03-15T07:51:03.717Z,6.13
2018-03-15T07:53:31.687Z,5.27
2018-03-15T07:55:59.728Z,4.10
2018-03-15T07:58:27.664Z,3.50
2018-03-15T08:00:55.596Z,3.37
2018-03-15T08:03:23.538Z,3.50
2018-03-15T08:05:51.454Z,11.67
2018-03-15T08:08:19.386Z,4.60
2018-03-15T08:10:47.317Z,6.73
2018-03-15T08:13:15.253Z,4.70
2018-03-15T08:15:43.184Z,3.10
2018-03-15T08:18:11.098Z,3.50
2018-03-15T08:20:39.023Z,5.87
2018-03-15T08:23:06.973Z,4.10
2018-03-15T08:25:34.920Z,6.27
2018-03-15T08:28:02.853Z,3.57
2018-03-15T08:30:30.796Z,6.50
2018-03-15T08:32:58.726Z,4.57
2018-03-15T08:35:26.685Z,5.83
2018-03-15T08:37:54.625Z,3.40
2018-03-15T08:40:22.548Z,7.67
2018-03-15T08:42:50.513Z,3.67
2018-03-15T08:45:18.453Z,4.83
2018-03-15T08:47:46.412Z,3.47
2018-03-15T08:50:14.341Z,3.77
2018-03-15T08:52:42.311Z,3.13
2018-03-15T08:55:10.238Z,3.50
2018-03-15T08:57:38.174Z,5.20
2018-03-15T09:00:06.111Z,5.07
2018-03-15T09:02:34.042Z,3.30
2018-03-15T09:05:01.985Z,4.50
2018-03-15T09:07:29.890Z,6.43
2018-03-15T09:09:57.829Z,5.43
2018-03-15T09:12:25.728Z,4.07
2018-03-15T09:14:53.693Z,3.67
2018-03-15T09:17:21.629Z,5.73
2018-03-15T09:19:49.548Z,5.67
2018-03-15T09:22:17.474Z,4.87
2018-03-15T09:24:45.409Z,4.90
2018-03-15T09:27:13.314Z,4.17
2018-03-15T09:29:41.253Z,5.50
2018-03-15T09:32:09.221Z,3.97
2018-03-15T09:34:37.205Z,3.10
2018-03-15T09:37:05.134Z,5.53
2018-03-15T09:39:33.068Z,2.50
2018-03-15T09:42:00.996Z,3.83
2018-03-15T09:44:28.933Z,2.97
2018-03-15T09:46:57.001Z,4.50
2018-03-15T09:49:24.952Z,2.43
2018-03-15T09:51:52.851Z,3.97
2018-03-15T09:54:20.805Z,4.30
2018-03-15T09:56:48.732Z,5.33
2018-03-15T09:59:16.683Z,5.33
2018-03-15T10:01:44.695Z,3.07
2018-03-15T10:04:12.620Z,3.87
2018-03-15T10:06:40.591Z,3.33
2018-03-15T10:09:08.597Z,3.83
2018-03-15T10:11:36.573Z,4.00
2018-03-15T10:14:04.495Z,4.87
2018-03-15T10:16:32.413Z,5.67
2018-03-15T10:19:00.406Z,3.77
2018-03-15T10:21:28.476Z,3.30
2018-03-15T10:23:56.398Z,3.57
2018-03-15T10:26:24.328Z,4.40
2018-03-15T10:28:52.281Z,4.03
2018-03-15T10:31:20.236Z,4.50
2018-03-15T10:33:48.212Z,3.30
2018-03-15T10:36:16.146Z,4.20
2018-03-15T10:38:44.081Z,8.27
2018-03-15T10:41:12.001Z,8.13
2018-03-15T10:43:40.011Z,5.63
2018-03-15T10:46:08.021Z,4.50
2018-03-15T10:48:36.188Z,5.47
2018-03-15T10:51:04.485Z,5.23
2018-03-15T10:53:32.669Z,5.00
2018-03-15T10:56:00.617Z,3.63
2018-03-15T10:58:29.061Z,6.10
2018-03-15T11:01:02.559Z,5.03
2018-03-15T11:03:37.293Z,4.00
2018-03-15T11:06:09.941Z,4.87
2018-03-15T11:08:37.961Z,4.90
2018-03-15T11:11:07.774Z,4.20
2018-03-15T11:13:35.700Z,6.60
2018-03-15T11:16:03.641Z,4.03
2018-03-15T11:18:31.582Z,3.70
2018-03-15T11:20:59.498Z,3.83
2018-03-15T11:23:27.412Z,4.13
2018-03-15T11:25:55.443Z,4.10
2018-03-15T11:28:23.370Z,3.30
2018-03-15T11:30:51.323Z,3.33
2018-03-15T11:33:19.245Z,7.87
2018-03-15T11:35:47.226Z,3.13
2018-03-15T11:38:15.125Z,3.60
2018-03-15T11:40:43.070Z,3.40
2018-03-15T11:43:10.998Z,4.90
2018-03-15T11:45:38.968Z,7.50
2018-03-15T11:48:06.934Z,6.50
2018-03-15T11:50:34.889Z,5.60
2018-03-15T11:53:03.052Z,4.80
2018-03-15T11:55:31.118Z,5.40
2018-03-15T11:57:59.065Z,5.90
2018-03-15T12:00:26.990Z,4.27
2018-03-15T12:02:54.920Z,5.63
2018-03-15T12:05:22.970Z,6.43
2018-03-15T12:07:51.725Z,5.10
2018-03-15T12:10:19.664Z,4.27
2018-03-15T12:12:47.609Z,5.30
2018-03-15T12:15:15.576Z,5.53
2018-03-15T12:17:43.612Z,5.77
2018-03-15T12:20:11.616Z,5.97
2018-03-15T12:22:39.542Z,4.10
2018-03-15T12:25:07.461Z,4.10
2018-03-15T12:27:35.467Z,4.40
2018-03-15T12:30:03.425Z,4.63
2018-03-15T12:32:31.381Z,6.07
2018-03-15T12:34:59.371Z,4.17
2018-03-15T12:37:27.314Z,4.93
2018-03-15T12:39:55.372Z,4.30
2018-03-15T12:42:23.278Z,8.00
2018-03-15T12:44:51.299Z,5.97
2018-03-15T12:47:19.185Z,5.67
2018-03-15T12:49:47.140Z,5.53
2018-03-15T12:52:15.062Z,10.40
2018-03-15T12:54:42.978Z,4.53
2018-03-15T12:57:11.015Z,7.47
2018-03-15T12:59:38.985Z,5.40
2018-03-15T13:02:06.919Z,6.73
2018-03-15T13:04:34.852Z,5.00
2018-03-15T13:07:02.809Z,4.73
2018-03-15T13:09:30.870Z,5.63
2018-03-15T13:11:58.835Z,9.40
2018-03-15T13:14:26.730Z,5.27
2018-03-15T13:16:54.736Z,7.30
2018-03-15T13:19:25.027Z,6.03
2018-03-15T13:21:52.961Z,6.03
2018-03-15T13:24:20.911Z,6.37
2018-03-15T13:26:48.911Z,6.27
2018-03-15T13:29:16.861Z,7.47
2018-03-15T13:31:44.772Z,5.73
2018-03-15T13:34:12.796Z,5.10
2018-03-15T13:36:40.735Z,6.20
2018-03-15T13:39:08.766Z,8.10
2018-03-15T13:41:36.681Z,11.63
2018-03-15T13:44:04.626Z,6.40
2018-03-15T13:46:32.580Z,5.50
2018-03-15T13:49:00.523Z,6.30
2018-03-15T13:51:28.675Z,5.57
2018-03-15T13:53:56.645Z,6.63
2018-03-15T13:56:24.573Z,5.77
2018-03-15T13:58:52.545Z,7.27
2018-03-15T14:01:20.557Z,6.63
2018-03-15T14:03:48.482Z,5.60
2018-03-15T14:06:16.492Z,9.30
2018-03-15T14:08:44.468Z,7.23
2018-03-15T14:11:12.489Z,5.47
2018-03-15T14:13:40.391Z,8.27
2018-03-15T14:16:08.394Z,11.90
2018-03-15T14:18:36.374Z,23.27
2018-03-15T14:21:04.344Z,41.27
2018-03-15T14:23:32.280Z,22.67
2018-03-15T14:26:00.198Z,11.70
2018-03-15T14:28:28.151Z,6.80
2018-03-15T14:30:56.117Z,9.17
2018-03-15T14:33:24.042Z,8.80
2018-03-15T14:35:51.973Z,14.63
2018-03-15T14:38:19.892Z,7.80
2018-03-15T14:40:47.883Z,5.73
2018-03-15T14:43:15.813Z,5.77
2018-03-15T14:45:43.762Z,8.97
2018-03-15T14:48:11.715Z,8.50
2018-03-15T14:50:39.746Z,8.27
2018-03-15T14:53:08.386Z,7.80
2018-03-15T14:55:36.286Z,5.40
2018-03-15T14:58:04.226Z,6.23
2018-03-15T15:00:32.154Z,6.57
2018-03-15T15:03:00.122Z,8.03
2018-03-15T15:05:28.151Z,8.37
2018-03-15T15:07:56.098Z,12.03
2018-03-15T15:10:24.020Z,7.13
2018-03-15T15:12:51.962Z,6.33
2018-03-15T15:15:19.899Z,6.83
2018-03-15T15:17:47.837Z,7.47
2018-03-15T15:20:15.851Z,7.30
2018-03-15T15:22:43.833Z,5.70
2018-03-15T15:25:11.813Z,6.47
2018-03-15T15:27:39.759Z,7.27
2018-03-15T15:30:07.666Z,9.10
2018-03-15T15:32:35.895Z,40.33
2018-03-15T15:35:03.794Z,15.63
2018-03-15T15:37:31.887Z,10.00
2018-03-15T15:40:00.745Z,8.83
2018-03-15T15:42:28.693Z,17.60
2018-03-15T15:44:56.615Z,20.40
2018-03-15T15:47:24.585Z,13.93
2018-03-15T15:49:52.530Z,9.03
2018-03-15T15:52:20.506Z,15.67
2018-03-15T15:54:48.458Z,15.83
2018-03-15T15:57:16.422Z,8.33
2018-03-15T15:59:44.430Z,9.43
2018-03-15T16:02:12.355Z,10.00
2018-03-15T16:04:40.479Z,8.90
2018-03-15T16:07:08.390Z,7.90
2018-03-15T16:09:36.362Z,10.30
2018-03-15T16:12:04.265Z,6.70
2018-03-15T16:14:32.178Z,10.20
2018-03-15T16:17:00.194Z,8.40
2018-03-15T16:19:28.123Z,7.73
2018-03-15T16:21:56.052Z,6.73
2018-03-15T16:24:23.979Z,9.10
2018-03-15T16:26:51.917Z,9.20
2018-03-15T16:29:19.845Z,9.40
2018-03-15T16:31:47.770Z,13.57
2018-03-15T16:34:15.705Z,12.83
2018-03-15T16:36:43.651Z,8.47
2018-03-15T16:39:11.668Z,9.07
2018-03-15T16:41:39.594Z,21.53
2018-03-15T16:44:07.576Z,57.90
2018-03-15T16:46:35.546Z,13.70
2018-03-15T16:49:03.515Z,20.80
2018-03-15T16:51:32.262Z,15.67
2018-03-15T16:54:00.175Z,16.90
2018-03-15T16:56:28.153Z,24.70
2018-03-15T16:58:56.274Z,24.43
2018-03-15T17:01:24.219Z,11.10
2018-03-15T17:03:52.180Z,15.60
2018-03-15T17:06:20.241Z,7.73
2018-03-15T17:08:48.162Z,8.27
2018-03-15T17:11:16.082Z,8.67
2018-03-15T17:13:44.061Z,6.90
2018-03-15T17:16:12.880Z,5.87
2018-03-15T17:18:41.353Z,7.43
2018-03-15T17:21:09.274Z,10.23
2018-03-15T17:23:37.210Z,6.77
2018-03-15T17:26:05.151Z,12.50
2018-03-15T17:28:33.106Z,9.60
2018-03-15T17:31:01.059Z,8.37
2018-03-15T17:33:29.017Z,10.27
2018-03-15T17:35:57.022Z,7.73
2018-03-15T17:38:24.956Z,6.87
2018-03-15T17:40:52.927Z,5.37
2018-03-15T17:43:20.912Z,6.10
2018-03-15T17:45:48.834Z,4.90
2018-03-15T17:48:16.822Z,7.83
2018-03-15T17:50:44.756Z,5.63
2018-03-15T17:53:12.655Z,6.53
2018-03-15T17:55:40.570Z,8.10
2018-03-15T17:58:08.505Z,8.60
2018-03-15T18:00:36.483Z,8.07
2018-03-15T18:03:04.473Z,6.60
2018-03-15T18:05:32.412Z,8.17
2018-03-15T18:08:00.384Z,7.27
2018-03-15T18:10:28.262Z,5.50
2018-03-15T18:12:56.232Z,7.00
2018-03-15T18:15:24.190Z,9.57
2018-03-15T18:17:52.095Z,9.00
2018-03-15T18:20:20.036Z,6.73
2018-03-15T18:22:47.938Z,9.07
2018-03-15T18:25:15.951Z,6.80
2018-03-15T18:27:43.843Z,9.00
2018-03-15T18:30:11.984Z,13.10
2018-03-15T18:32:39.901Z,9.10
2018-03-15T18:35:07.908Z,9.43
2018-03-15T18:37:35.836Z,10.27
2018-03-15T18:40:03.745Z,15.97
2018-03-15T18:42:31.661Z,14.87
2018-03-15T18:44:59.614Z,28.47
2018-03-15T18:47:27.613Z,54.90
2018-03-15T18:49:55.530Z,21.80
2018-03-15T18:52:23.449Z,15.57
2018-03-15T18:54:51.526Z,17.07
2018-03-15T18:57:19.481Z,11.43
2018-03-15T18:59:47.382Z,9.97
2018-03-15T19:02:15.298Z,9.73
2018-03-15T19:04:43.314Z,9.00
2018-03-15T19:07:11.388Z,7.50
2018-03-15T19:09:39.316Z,7.80
2018-03-15T19:12:07.235Z,10.93
2018-03-15T19:14:35.170Z,7.70
2018-03-15T19:17:03.303Z,9.03
2018-03-15T19:19:31.429Z,10.73
2018-03-15T19:21:59.392Z,6.78
2018-03-15T19:24:27.302Z,8.68
2018-03-15T19:26:55.213Z,7.87
2018-03-15T19:29:23.149Z,7.33
2018-03-15T19:31:51.185Z,10.43
2018-03-15T19:34:19.138Z,8.60
2018-03-15T19:36:47.135Z,11.23
2018-03-15T19:39:15.057Z,12.97
2018-03-15T19:41:43.059Z,10.88
2018-03-15T19:44:10.958Z,7.20
2018-03-15T19:46:38.881Z,8.83
2018-03-15T19:49:06.809Z,6.67
2018-03-15T19:51:35.619Z,7.78
2018-03-15T19:54:03.609Z,11.30
2018-03-15T19:56:31.559Z,6.70
2018-03-15T19:58:59.429Z,11.53
2018-03-15T20:01:28.189Z,7.00
2018-03-15T20:03:56.141Z,8.13
2018-03-15T20:06:24.056Z,11.67
2018-03-15T20:08:51.990Z,7.07
2018-03-15T20:11:19.909Z,10.23
2018-03-15T20:13:47.824Z,7.93
2018-03-15T20:16:15.761Z,11.17
2018-03-15T20:18:43.901Z,7.73
2018-03-15T20:21:11.821Z,9.10
2018-03-15T20:23:45.424Z,6.50
2018-03-15T20:26:13.362Z,7.33
2018-03-15T20:28:45.150Z,9.60
2018-03-15T20:31:13.308Z,8.30
2018-03-15T20:33:46.925Z,10.73
2018-03-15T20:36:14.897Z,8.07
2018-03-15T20:38:42.793Z,8.13
2018-03-15T20:41:16.447Z,8.10
2018-03-15T20:43:44.358Z,10.70
2018-03-15T20:46:17.979Z,10.73
2018-03-15T20:48:52.065Z,9.35
2018-03-15T20:51:27.767Z,9.13
2018-03-15T20:53:55.674Z,12.50
2018-03-15T20:56:23.729Z,10.87
2018-03-15T20:58:52.698Z,8.30
2018-03-15T21:01:20.598Z,13.00
2018-03-15T21:03:48.732Z,9.03
2018-03-15T21:06:17.232Z,13.27
2018-03-15T21:08:45.146Z,7.67
2018-03-15T21:11:13.077Z,9.73
2018-03-15T21:13:41.007Z,14.33
2018-03-15T21:16:09.066Z,10.02
2018-03-15T21:18:36.993Z,11.50
2018-03-15T21:21:04.916Z,15.23
2018-03-15T21:23:32.844Z,8.90
2018-03-15T21:26:00.813Z,9.17
2018-03-15T21:28:28.949Z,10.10
2018-03-15T21:30:56.893Z,11.60
2018-03-15T21:33:24.904Z,8.93
2018-03-15T21:35:52.846Z,9.03
2018-03-15T21:38:20.877Z,14.73
2018-03-15T21:40:48.813Z,9.80
2018-03-15T21:43:16.759Z,12.90
2018-03-15T21:45:44.723Z,21.83
2018-03-15T21:48:13.122Z,9.60
2018-03-15T21:50:41.053Z,11.60
2018-03-15T21:53:08.994Z,11.63
2018-03-15T21:55:37.318Z,10.33
2018-03-15T21:58:05.345Z,12.43
2018-03-15T22:00:33.293Z,10.40
2018-03-15T22:03:01.242Z,12.43
2018-03-15T22:05:29.203Z,11.00
2018-03-15T22:07:57.172Z,9.30
2018-03-15T22:10:25.102Z,13.27
2018-03-15T22:12:53.034Z,10.90
2018-03-15T22:15:21.232Z,11.23
2018-03-15T22:17:49.158Z,14.13
2018-03-15T22:20:17.062Z,11.00
2018-03-15T22:22:45.042Z,13.68
2018-03-15T22:25:12.966Z,12.70
2018-03-15T22:27:40.918Z,11.57
2018-03-15T22:30:08.841Z,14.27
2018-03-15T22:32:36.757Z,12.43
2018-03-15T22:35:04.769Z,12.57
2018-03-15T22:37:32.758Z,10.53
2018-03-15T22:40:00.836Z,11.88
2018-03-15T22:42:28.737Z,12.23
2018-03-15T22:44:56.679Z,13.83
2018-03-15T22:47:24.641Z,13.27
2018-03-15T22:49:52.585Z,14.07
2018-03-15T22:52:21.097Z,11.73
2018-03-15T22:54:49.049Z,13.97
2018-03-15T22:57:16.984Z,11.57
2018-03-15T22:59:44.968Z,13.30
2018-03-15T23:02:12.885Z,15.00
2018-03-15T23:04:40.986Z,11.97
2018-03-15T23:07:08.916Z,13.23
2018-03-15T23:09:36.841Z,12.87
2018-03-15T23:12:04.789Z,14.00
2018-03-15T23:14:32.772Z,11.13
2018-03-15T23:17:00.697Z,13.50
2018-03-15T23:19:28.751Z,14.03
2018-03-15T23:21:56.708Z,19.87
2018-03-15T23:24:24.661Z,12.37
2018-03-15T23:26:52.763Z,18.80
2018-03-15T23:29:20.750Z,23.45
2018-03-15T23:31:50.101Z,21.67
2018-03-15T23:34:18.019Z,26.40
2018-03-15T23:36:45.965Z,18.20
2018-03-15T23:39:13.966Z,13.43
2018-03-15T23:41:41.959Z,14.60
2018-03-15T23:44:09.925Z,14.40
2018-03-15T23:46:37.838Z,16.30
2018-03-15T23:49:05.796Z,13.38
2018-03-15T23:51:33.727Z,19.33
2018-03-15T23:54:01.697Z,17.10
2018-03-15T23:56:29.722Z,17.55
2018-03-15T23:58:57.887Z,14.87
